Time;durP1;ratioP1;P1;durP2;ratioP2;P2;SDS_P1;SDS_P2;PMS_P1;PMS_P2;Temp;Humidity;BMP_temperature;BMP_pressure;BME280_temperature;BME280_humidity;BME280_pressure;Samples;Min_cycle;Max_cycle;Signal;HPM_P1;HPM_P2
2022/09/04 00:02:21;;;;;;;4.40;2.83;;;;;;;11.44;69.13;100172.84;5084730;28;20047;-59
2022/09/04 00:04:54;;;;;;;6.55;3.20;;;;;;;11.43;69.27;100172.88;5079814;28;20028;-58
2022/09/04 00:07:19;;;;;;;4.93;3.25;;;;;;;11.41;69.65;100178.09;5086811;28;20024;-59
2022/09/04 00:10:01;;;;;;;5.22;3.42;;;;;;;11.11;69.95;100123.28;5086758;28;20019;-59
2022/09/04 00:12:33;;;;;;;6.80;3.40;;;;;;;10.94;70.38;100128.75;5084731;28;20083;-59
2022/09/04 00:15:10;;;;;;;3.28;2.95;;;;;;;11.22;69.58;100173.22;5085441;28;20025;-59
2022/09/04 00:18:01;;;;;;;5.80;3.05;;;;;;;10.97;69.73;100140.78;5086412;28;20199;-59
2022/09/04 00:20:54;;;;;;;6.53;3.33;;;;;;;11.28;70.09;100186.97;5082843;28;20273;-59
2022/09/04 00:23:38;;;;;;;3.88;2.95;;;;;;;10.95;69.78;100129.63;5084098;28;20025;-58
2022/09/04 00:26:33;;;;;;;6.05;3.28;;;;;;;11.28;70.46;100184.38;5081771;28;20037;-58
2022/09/04 00:29:04;;;;;;;3.92;3.28;;;;;;;11.27;70.55;100206.00;5078972;28;20055;-59
2022/09/04 00:31:38;;;;;;;5.35;3.30;;;;;;;11.17;70.35;100195.78;5086384;28;20024;-59
2022/09/04 00:34:28;;;;;;;7.85;3.63;;;;;;;11.19;70.25;100188.00;5078767;28;20028;-59
2022/09/04 00:37:00;;;;;;;3.63;3.20;;;;;;;11.17;70.28;100194.91;5085239;28;20110;-59
2022/09/04 00:39:38;;;;;;;4.28;3.10;;;;;;;11.20;70.14;100190.56;5081034;28;20024;-58
2022/09/04 00:42:25;;;;;;;3.83;3.13;;;;;;;11.12;70.70;100179.44;5081775;28;20039;-59
2022/09/04 00:45:24;;;;;;;3.13;2.83;;;;;;;11.06;70.99;100179.53;5082544;28;20059;-60
2022/09/04 00:48:08;;;;;;;4.05;3.22;;;;;;;11.14;70.97;100190.63;5082713;28;20074;-57
2022/09/04 00:50:53;;;;;;;4.80;3.33;;;;;;;11.13;70.49;100182.88;5080332;28;20039;-58
2022/09/04 00:53:57;;;;;;;3.60;3.30;;;;;;;11.10;71.20;100185.53;5083330;28;20054;-58
2022/09/04 00:56:37;;;;;;;5.97;3.25;;;;;;;11.04;71.26;100178.69;5080498;28;20040;-59
2022/09/04 00:59:24;;;;;;;5.38;2.97;;;;;;;11.08;71.20;100184.69;5080220;28;20241;-59
2022/09/04 01:01:59;;;;;;;4.45;3.00;;;;;;;11.01;71.61;100183.94;5082426;28;20336;-59
2022/09/04 01:04:42;;;;;;;4.38;3.17;;;;;;;10.67;71.02;100127.44;5080613;28;20258;-58
2022/09/04 01:07:22;;;;;;;4.78;3.50;;;;;;;10.99;71.32;100183.13;5080966;28;20083;-59
2022/09/04 01:10:05;;;;;;;6.07;3.50;;;;;;;10.98;71.21;100187.41;5080854;28;20042;-59
2022/09/04 01:13:03;;;;;;;3.97;3.00;;;;;;;10.63;71.53;100136.13;5083884;28;20095;-59
2022/09/04 01:15:45;;;;;;;4.88;3.15;;;;;;;10.61;71.50;100133.56;5083785;28;20213;-59
2022/09/04 01:18:13;;;;;;;4.93;3.25;;;;;;;10.92;71.28;100184.09;5083838;28;20043;-59
2022/09/04 01:20:50;;;;;;;3.95;3.20;;;;;;;10.50;71.50;100125.94;5083908;28;20248;-59
2022/09/04 01:23:37;;;;;;;4.68;3.13;;;;;;;10.91;72.02;100195.31;5084084;28;20431;-58
2022/09/04 01:26:32;;;;;;;6.10;3.10;;;;;;;10.90;71.45;100199.63;5082551;28;20029;-58
2022/09/04 01:29:12;;;;;;;5.60;3.55;;;;;;;10.80;72.00;100187.69;5067112;28;20046;-60
2022/09/04 01:31:57;;;;;;;6.53;3.35;;;;;;;10.84;72.27;100210.09;5083090;28;20036;-60
2022/09/04 01:35:00;;;;;;;8.38;3.65;;;;;;;10.83;72.18;100190.22;5083393;28;20220;-61
2022/09/04 01:37:38;;;;;;;5.72;3.33;;;;;;;10.47;72.09;100138.91;5083534;28;20020;-60
2022/09/04 01:40:37;;;;;;;5.15;2.97;;;;;;;10.70;72.32;100185.25;5083434;28;20086;-60
2022/09/04 01:43:24;;;;;;;6.90;3.50;;;;;;;10.71;72.38;100181.75;5065352;28;20099;-59
2022/09/04 01:46:08;;;;;;;9.02;3.20;;;;;;;10.69;72.63;100186.13;5074831;28;20024;-58
2022/09/04 01:49:07;;;;;;;6.22;3.72;;;;;;;10.68;72.60;100188.72;5091326;28;20142;-58
2022/09/04 01:51:38;;;;;;;5.38;3.10;;;;;;;10.65;72.83;100183.59;5092701;28;20043;-58
2022/09/04 01:54:11;;;;;;;4.25;3.50;;;;;;;10.63;72.53;100187.91;5103478;28;20229;-58
2022/09/04 01:56:47;;;;;;;6.38;3.70;;;;;;;10.26;72.64;100134.00;5085129;28;20043;-59
2022/09/04 01:59:37;;;;;;;5.63;3.35;;;;;;;10.57;72.90;100178.50;5068372;28;20044;-59
2022/09/04 02:02:45;;;;;;;7.38;3.63;;;;;;;10.52;73.23;100180.31;5063241;28;20024;-58
2022/09/04 02:05:23;;;;;;;4.53;3.95;;;;;;;10.52;72.64;100191.50;5078859;28;20048;-59
2022/09/04 02:07:57;;;;;;;4.82;3.47;;;;;;;10.15;72.92;100116.03;5082983;28;20031;-58
2022/09/04 02:10:35;;;;;;;6.45;3.88;;;;;;;10.51;73.00;100174.25;5083071;28;20044;-59
2022/09/04 02:13:28;;;;;;;4.97;3.53;;;;;;;10.51;72.92;100170.81;5083414;28;20027;-60
2022/09/04 02:16:25;;;;;;;4.90;3.42;;;;;;;10.48;73.58;100174.31;5082931;28;20075;-60
2022/09/04 02:19:09;;;;;;;5.20;3.72;;;;;;;10.51;73.59;100170.81;5082949;28;20024;-60
2022/09/04 02:21:41;;;;;;;4.80;3.88;;;;;;;10.49;73.12;100182.94;5072142;28;20024;-59
2022/09/04 02:24:22;;;;;;;4.32;3.78;;;;;;;10.44;73.86;100170.03;5082846;28;20051;-59
2022/09/04 02:27:09;;;;;;;6.40;3.60;;;;;;;10.34;73.53;100163.28;5082724;28;20036;-59
2022/09/04 02:29:41;;;;;;;5.82;3.58;;;;;;;10.36;73.65;100174.44;5082805;28;20039;-58
2022/09/04 02:32:36;;;;;;;6.18;3.72;;;;;;;10.34;73.66;100177.06;5082875;28;20040;-59
2022/09/04 02:35:02;;;;;;;7.22;4.38;;;;;;;10.37;74.25;100181.34;5081330;28;20073;-59
2022/09/04 02:37:35;;;;;;;6.90;4.15;;;;;;;10.36;73.99;100182.22;5082917;28;20024;-59
2022/09/04 02:40:19;;;;;;;8.05;4.30;;;;;;;10.36;73.97;100179.63;5082451;28;20032;-59
2022/09/04 02:43:06;;;;;;;8.57;4.43;;;;;;;10.39;74.05;100183.91;5081688;28;20236;-59
2022/09/04 02:45:54;;;;;;;8.05;3.90;;;;;;;10.10;74.59;100147.13;5082483;28;20074;-59
2022/09/04 02:48:27;;;;;;;7.68;4.38;;;;;;;10.29;74.60;100194.38;5089690;28;20031;-58
2022/09/04 02:51:23;;;;;;;7.80;4.53;;;;;;;10.27;74.95;100193.50;5065842;28;20083;-59
2022/09/04 02:54:09;;;;;;;8.40;4.40;;;;;;;9.92;75.05;100142.16;5082544;28;20032;-59
2022/09/04 02:56:57;;;;;;;5.97;4.65;;;;;;;10.26;75.14;100194.41;5082455;28;20074;-59
2022/09/04 02:59:51;;;;;;;7.13;4.53;;;;;;;10.27;74.88;100192.66;5078285;28;20059;-59
2022/09/04 03:02:30;;;;;;;11.10;4.45;;;;;;;9.96;74.32;100144.72;5062445;28;20286;-59
2022/09/04 03:05:05;;;;;;;7.75;4.28;;;;;;;9.92;74.49;100134.41;5075931;28;20034;-58
2022/09/04 03:08:01;;;;;;;7.03;3.70;;;;;;;9.90;75.09;100146.50;5099312;28;20024;-59
2022/09/04 03:10:33;;;;;;;7.20;5.53;;;;;;;10.24;75.42;100195.28;5078399;28;20228;-58
2022/09/04 03:13:07;;;;;;;8.45;4.72;;;;;;;10.02;75.28;100148.97;5082193;28;20109;-59
2022/09/04 03:15:44;;;;;;;7.20;4.30;;;;;;;10.31;74.87;100189.16;5089947;28;20024;-59
2022/09/04 03:18:37;;;;;;;6.85;4.68;;;;;;;10.28;75.61;100189.22;5088392;28;20020;-58
2022/09/04 03:21:11;;;;;;;7.28;4.28;;;;;;;10.30;75.50;100195.22;5085832;28;20037;-59
2022/09/04 03:24:04;;;;;;;7.63;4.10;;;;;;;9.98;75.56;100136.94;5070912;28;20035;-58
2022/09/04 03:26:45;;;;;;;7.13;4.30;;;;;;;10.29;75.63;100209.03;5098173;28;20225;-59
2022/09/04 03:29:23;;;;;;;6.40;4.40;;;;;;;10.31;74.54;100195.19;5083032;28;20139;-58
2022/09/04 03:31:58;;;;;;;5.55;4.00;;;;;;;10.29;75.90;100194.38;5082978;28;20040;-59
2022/09/04 03:34:56;;;;;;;7.15;4.20;;;;;;;10.01;75.09;100134.31;5071901;28;20029;-58
2022/09/04 03:37:47;;;;;;;7.10;4.47;;;;;;;10.08;74.96;100138.53;5077974;28;20386;-59
2022/09/04 03:40:34;;;;;;;7.07;4.07;;;;;;;10.34;75.60;100178.81;5095560;28;20032;-60
2022/09/04 03:43:26;;;;;;;9.70;5.65;;;;;;;10.05;75.07;100128.22;5088619;28;20248;-60
2022/09/04 03:46:07;;;;;;;7.60;4.90;;;;;;;10.19;75.96;100152.19;5082610;28;20222;-59
2022/09/04 03:48:39;;;;;;;8.13;4.32;;;;;;;10.46;75.53;100189.00;5082429;28;20073;-59
2022/09/04 03:51:32;;;;;;;7.70;4.68;;;;;;;10.46;75.85;100185.53;5082242;28;20016;-59
2022/09/04 03:54:16;;;;;;;4.97;4.10;;;;;;;10.23;76.34;100157.34;5082796;28;20016;-59
2022/09/04 03:57:03;;;;;;;7.53;4.00;;;;;;;10.49;75.97;100190.72;5067385;28;20072;-59
2022/09/04 03:59:43;;;;;;;7.63;4.05;;;;;;;10.57;75.31;100190.59;5086205;28;20028;-59
2022/09/04 04:02:36;;;;;;;6.50;5.13;;;;;;;10.56;76.20;100187.16;5066163;28;20028;-59
2022/09/04 04:05:10;;;;;;;;;;;;;;;10.53;76.40;100193.25;5080406;28;20033;-59
2022/09/04 04:08:05;;;;;;;7.45;4.03;;;;;;;10.21;76.20;100128.03;5084710;28;19912;-59
2022/09/04 04:10:32;;;;;;;6.30;4.00;;;;;;;10.66;75.23;100183.56;5085984;28;20044;-59
2022/09/04 04:13:36;;;;;;;6.15;3.92;;;;;;;10.66;75.49;100186.16;5085602;28;20048;-59
2022/09/04 04:16:20;;;;;;;6.13;3.97;;;;;;;10.64;75.07;100185.31;5084490;28;20059;-57
2022/09/04 04:19:36;;;;;;;5.47;3.65;;;;;;;10.37;75.38;100121.81;5083090;28;20028;-57
2022/09/04 04:22:22;;;;;;;4.85;4.35;;;;;;;10.75;75.39;100182.59;5055648;28;20097;-59
2022/09/04 04:25:02;;;;;;;6.22;4.22;;;;;;;10.81;74.42;100177.31;5083723;28;20099;-59
2022/09/04 04:27:47;;;;;;;4.60;3.70;;;;;;;10.85;74.27;100183.31;5085656;28;20055;-57
2022/09/04 04:30:15;;;;;;;3.72;3.42;;;;;;;10.68;73.32;100155.06;5085529;28;20028;-58
2022/09/04 04:33:02;;;;;;;4.53;3.55;;;;;;;10.96;73.11;100176.22;5085407;28;20053;-58
2022/09/04 04:35:48;;;;;;;5.28;3.50;;;;;;;10.99;72.45;100183.97;5065504;28;20033;-58
2022/09/04 04:38:35;;;;;;;5.10;3.40;;;;;;;11.09;71.18;100179.50;5069419;28;20057;-58
2022/09/04 04:41:19;;;;;;;4.05;3.25;;;;;;;10.83;72.32;100131.50;5077283;28;20059;-58
2022/09/04 04:44:10;;;;;;;5.32;3.35;;;;;;;11.04;71.96;100176.09;5083026;28;20040;-58
2022/09/04 04:46:35;;;;;;;4.47;2.97;;;;;;;11.15;70.99;100175.94;5085092;28;20341;-58
2022/09/04 04:49:28;;;;;;;7.97;3.67;;;;;;;11.17;71.27;100175.06;5080762;28;20036;-58
2022/09/04 04:52:14;;;;;;;6.72;2.90;;;;;;;11.14;70.43;100179.41;5086874;28;20059;-58
2022/09/04 04:54:58;;;;;;;4.65;3.47;;;;;;;11.23;69.47;100174.94;5101697;28;20055;-58
2022/09/04 04:57:56;;;;;;;3.78;2.97;;;;;;;11.31;69.33;100185.16;5084677;28;20333;-58
2022/09/04 05:00:47;;;;;;;8.10;3.50;;;;;;;11.35;68.89;100189.44;5070995;28;20028;-59
2022/09/04 05:03:50;;;;;;;6.90;3.55;;;;;;;11.34;67.78;100184.28;5084729;28;20028;-59
2022/09/04 05:06:40;;;;;;;5.15;3.30;;;;;;;11.42;67.86;100185.00;5069358;28;20040;-59
2022/09/04 05:09:17;;;;;;;5.65;3.65;;;;;;;11.40;67.94;100166.00;5088777;28;20024;-59
2022/09/04 05:12:44;;;;;;;6.20;4.30;;;;;;;11.46;66.85;100183.19;5105244;28;20043;-60
2022/09/04 05:15:22;;;;;;;3.45;2.97;;;;;;;11.49;66.19;100188.38;5082794;28;20037;-60
2022/09/04 05:17:58;;;;;;;3.92;2.92;;;;;;;11.54;66.49;100179.63;5103741;28;20405;-60
2022/09/04 05:20:46;;;;;;;3.83;2.85;;;;;;;11.55;65.79;100163.16;5093311;28;20113;-58
2022/09/04 05:23:31;;;;;;;4.68;2.80;;;;;;;11.68;66.32;100183.69;5084524;28;20025;-59
2022/09/04 05:26:29;;;;;;;3.05;2.40;;;;;;;11.74;64.81;100175.78;5084308;28;20033;-59
2022/09/04 05:28:55;;;;;;;3.80;2.17;;;;;;;11.80;65.06;100186.09;5084337;28;20031;-58
2022/09/04 05:31:47;;;;;;;3.55;1.77;;;;;;;11.82;64.56;100179.09;5084241;28;20217;-58
2022/09/04 05:34:56;;;;;;;3.55;2.83;;;;;;;11.45;63.41;100133.09;5083899;28;20095;-58
2022/09/04 05:37:43;;;;;;;4.28;2.58;;;;;;;11.89;63.40;100185.91;5084079;28;20080;-58
2022/09/04 05:40:21;;;;;;;2.85;2.30;;;;;;;12.03;63.08;100193.47;5083874;28;20198;-58
2022/09/04 05:43:21;;;;;;;6.25;2.40;;;;;;;12.05;63.52;100196.03;5083715;28;20278;-58
2022/09/04 05:46:05;;;;;;;4.20;2.22;;;;;;;12.20;63.57;100198.31;5073605;28;20078;-59
2022/09/04 05:48:50;;;;;;;2.13;1.35;;;;;;;11.91;61.55;100162.50;5083850;28;20039;-59
2022/09/04 05:51:53;;;;;;;1.50;1.40;;;;;;;12.17;61.19;100198.38;5083372;28;20056;-58
2022/09/04 05:54:40;;;;;;;1.30;1.20;;;;;;;11.92;61.30;100141.72;5083679;28;20036;-58
2022/09/04 05:57:29;;;;;;;2.58;1.35;;;;;;;12.37;60.77;100199.72;5083198;28;20036;-60
2022/09/04 06:00:05;;;;;;;1.63;1.50;;;;;;;12.36;59.80;100203.22;5081898;28;20037;-59
2022/09/04 06:02:55;;;;;;;1.67;1.20;;;;;;;12.43;59.32;100203.03;5083856;28;20024;-59
2022/09/04 06:05:39;;;;;;;1.65;1.00;;;;;;;12.46;58.76;100207.31;5083556;28;20035;-59
2022/09/04 06:08:10;;;;;;;1.95;1.20;;;;;;;12.58;58.82;100203.59;5083602;28;20021;-59
2022/09/04 06:10:42;;;;;;;2.17;1.20;;;;;;;12.58;57.24;100212.28;5083596;28;20020;-58
2022/09/04 06:13:38;;;;;;;1.00;0.90;;;;;;;12.57;56.99;100209.72;5095788;28;20038;-59
2022/09/04 06:16:30;;;;;;;3.60;1.13;;;;;;;12.67;57.19;100207.75;5103429;28;20058;-59
2022/09/04 06:19:14;;;;;;;2.05;1.27;;;;;;;12.83;58.63;100211.75;5090145;28;20086;-58
2022/09/04 06:22:08;;;;;;;1.33;1.20;;;;;;;12.92;57.93;100213.28;5071538;28;20032;-58
2022/09/04 06:24:49;;;;;;;3.15;1.42;;;;;;;13.00;56.92;100213.09;5073350;28;20072;-59
2022/09/04 06:27:40;;;;;;;1.90;1.55;;;;;;;12.63;56.22;100177.50;5083378;28;20229;-59
2022/09/04 06:30:09;;;;;;;1.58;1.38;;;;;;;13.04;58.41;100217.31;5086812;28;20039;-59
2022/09/04 06:33:05;;;;;;;2.47;1.60;;;;;;;13.06;57.34;100205.16;5103490;28;20031;-60
2022/09/04 06:35:36;;;;;;;1.83;1.50;;;;;;;13.09;57.37;100213.72;5083112;28;20229;-60
2022/09/04 06:38:33;;;;;;;4.60;1.60;;;;;;;13.16;56.60;100217.06;5102370;28;20389;-60
2022/09/04 06:41:26;;;;;;;1.60;1.50;;;;;;;13.23;56.32;100218.63;5102120;28;20058;-59
2022/09/04 06:44:01;;;;;;;2.70;1.50;;;;;;;12.66;55.55;100136.75;5103182;28;20023;-59
2022/09/04 06:46:39;;;;;;;1.55;1.30;;;;;;;13.04;55.16;100166.19;5103313;28;20035;-59
2022/09/04 06:49:46;;;;;;;3.53;1.38;;;;;;;13.43;54.85;100206.91;5091625;28;20024;-58
2022/09/04 06:52:30;;;;;;;2.67;1.50;;;;;;;13.36;54.77;100203.59;5094796;28;20032;-58
2022/09/04 06:55:15;;;;;;;6.65;1.73;;;;;;;13.10;55.32;100134.00;5085434;28;20300;-59
2022/09/04 06:57:59;;;;;;;4.55;1.63;;;;;;;13.66;54.80;100202.88;5084034;28;20355;-59
2022/09/04 07:00:29;;;;;;;1.63;1.52;;;;;;;13.61;55.79;100208.19;5067522;28;20047;-60
2022/09/04 07:03:13;;;;;;;3.13;1.50;;;;;;;13.39;54.06;100180.09;5082895;28;20028;-61
2022/09/04 07:05:53;;;;;;;1.50;1.10;;;;;;;13.18;52.60;100154.59;5082464;28;20046;-60
2022/09/04 07:09:02;;;;;;;2.63;1.35;;;;;;;13.45;51.96;100182.56;5082857;28;20248;-61
2022/09/04 07:11:30;;;;;;;2.22;1.10;;;;;;;13.72;51.52;100205.31;5080731;28;20375;-60
2022/09/04 07:14:10;;;;;;;1.73;1.08;;;;;;;13.80;51.35;100208.56;5098487;28;20044;-60
2022/09/04 07:17:08;;;;;;;3.50;1.15;;;;;;;13.75;51.24;100194.81;5087289;28;20035;-59
2022/09/04 07:19:53;;;;;;;2.92;1.38;;;;;;;13.65;51.15;100152.56;5082438;28;20021;-59
2022/09/04 07:22:37;;;;;;;1.40;1.20;;;;;;;14.05;51.05;100192.28;5095971;28;20051;-59
2022/09/04 07:25:16;;;;;;;1.55;1.33;;;;;;;14.13;51.44;100196.38;5091730;28;20035;-57
2022/09/04 07:28:19;;;;;;;4.38;1.23;;;;;;;14.33;51.49;100193.19;5082539;28;20206;-58
2022/09/04 07:31:10;;;;;;;2.65;1.33;;;;;;;14.06;50.55;100128.88;5086022;28;20051;-58
2022/09/04 07:34:03;;;;;;;1.60;1.43;;;;;;;14.46;50.56;100198.91;5086525;28;20031;-59
2022/09/04 07:37:00;;;;;;;2.10;1.15;;;;;;;13.94;48.57;100171.75;5092271;28;20412;-59
2022/09/04 07:39:45;;;;;;;5.75;1.58;;;;;;;14.22;49.82;100184.84;5089022;28;20059;-59
2022/09/04 07:42:26;;;;;;;2.97;1.65;;;;;;;14.22;49.44;100155.34;5088672;28;20024;-59
2022/09/04 07:45:35;;;;;;;5.10;1.30;;;;;;;13.95;48.69;100121.38;5105364;28;20020;-58
2022/09/04 07:48:27;;;;;;;1.88;1.40;;;;;;;14.37;50.57;100180.94;5085955;28;20036;-57
2022/09/04 07:51:12;;;;;;;2.50;1.52;;;;;;;14.32;50.64;100195.84;5080136;28;20310;-58
2022/09/04 07:53:59;;;;;;;4.38;1.80;;;;;;;14.30;49.87;100171.59;5065940;28;20260;-59
2022/09/04 07:57:21;;;;;;;2.17;1.55;;;;;;;14.42;50.41;100162.56;5077739;28;20028;-58
2022/09/04 08:00:14;;;;;;;3.92;1.63;;;;;;;14.70;49.93;100164.38;5071102;28;20063;-57
2022/09/04 08:02:58;;;;;;;1.58;1.35;;;;;;;14.75;49.41;100165.97;5106055;28;20036;-58
2022/09/04 08:05:36;;;;;;;1.38;1.27;;;;;;;14.84;49.89;100160.44;5081695;28;20083;-58
2022/09/04 08:08:43;;;;;;;2.05;1.50;;;;;;;15.03;49.71;100159.84;5085714;28;20201;-57
2022/09/04 08:11:17;;;;;;;6.70;4.57;;;;;;;14.50;48.48;100163.19;5085743;28;20032;-59
2022/09/04 08:14:19;;;;;;;2.47;1.30;;;;;;;14.83;48.45;100163.09;5085603;28;20028;-59
2022/09/04 08:16:45;;;;;;;3.58;1.55;;;;;;;14.92;48.84;100181.09;5101748;28;20032;-58
2022/09/04 08:19:29;;;;;;;1.85;1.25;;;;;;;14.85;47.18;100166.53;5093937;28;20095;-58
2022/09/04 08:21:56;;;;;;;2.70;1.20;;;;;;;14.83;48.36;100157.88;5085428;28;20115;-59
2022/09/04 08:25:02;;;;;;;5.07;2.53;;;;;;;15.00;47.00;100155.59;5085329;28;20048;-58
2022/09/04 08:27:44;;;;;;;2.42;1.20;;;;;;;14.93;45.90;100154.06;5085206;28;20333;-57
2022/09/04 08:30:13;;;;;;;1.73;1.30;;;;;;;14.82;46.44;100114.44;5088484;28;20061;-58
2022/09/04 08:33:05;;;;;;;5.00;2.97;;;;;;;15.00;47.42;100108.63;5105591;28;20459;-58
2022/09/04 08:35:35;;;;;;;2.83;1.50;;;;;;;15.09;46.27;100102.28;5085086;28;20066;-58
2022/09/04 08:38:28;;;;;;;8.68;3.30;;;;;;;15.49;45.22;100147.03;5085000;28;20029;-58
2022/09/04 08:41:21;;;;;;;4.55;2.03;;;;;;;15.70;45.15;100148.91;5082285;28;20272;-58
2022/09/04 08:43:59;;;;;;;1.80;1.20;;;;;;;16.03;42.36;100148.66;5084893;28;20024;-58
2022/09/04 08:46:45;;;;;;;3.45;1.33;;;;;;;16.35;43.81;100143.97;5082579;28;20313;-59
2022/09/04 08:49:44;;;;;;;2.50;1.30;;;;;;;16.70;43.21;100127.81;5080294;28;20032;-60
2022/09/04 08:52:36;;;;;;;1.92;1.33;;;;;;;17.05;42.61;100139.50;5085498;28;20020;-59
2022/09/04 08:55:23;;;;;;;1.88;1.30;;;;;;;17.16;42.02;100130.34;5081695;28;20138;-58
2022/09/04 08:57:58;;;;;;;1.35;1.10;;;;;;;17.39;40.18;100134.66;5083888;28;20057;-59
2022/09/04 09:01:11;;;;;;;2.42;1.45;;;;;;;17.61;39.70;100129.31;5084829;28;20202;-59
2022/09/04 09:03:55;;;;;;;1.20;1.10;;;;;;;17.71;40.76;100121.91;5070247;28;20078;-59
2022/09/04 09:07:06;;;;;;;1.60;0.82;;;;;;;17.57;40.85;100122.50;5079604;28;20052;-61
2022/09/04 09:09:48;;;;;;;3.10;1.15;;;;;;;16.99;40.87;100076.97;5080713;28;20032;-60
2022/09/04 09:12:25;;;;;;;;;;;;;;;16.77;40.28;100125.81;5081881;28;20033;-59
2022/09/04 09:15:30;;;;;;;1.80;1.30;;;;;;;17.11;40.55;100108.78;5081816;28;20378;-59
2022/09/04 09:18:20;;;;;;;3.55;1.30;;;;;;;17.47;40.13;100110.75;5084728;28;20036;-60
2022/09/04 09:20:52;;;;;;;1.90;1.10;;;;;;;17.28;40.43;100116.75;5084126;28;20032;-59
2022/09/04 09:23:21;;;;;;;3.83;1.23;;;;;;;17.01;39.62;100069.88;5082587;28;20020;-59
2022/09/04 09:26:17;;;;;;;2.85;1.08;;;;;;;16.87;38.81;100125.41;5085610;28;20375;-59
2022/09/04 09:28:58;;;;;;;3.17;1.30;;;;;;;16.43;39.75;100129.75;5083141;28;20024;-60
2022/09/04 09:31:45;;;;;;;3.30;1.60;;;;;;;16.31;40.53;100137.16;5081503;28;20206;-63
2022/09/04 09:34:46;;;;;;;2.60;1.50;;;;;;;16.03;40.70;100138.19;5079515;28;20055;-58
2022/09/04 09:37:31;;;;;;;2.92;1.35;;;;;;;16.09;40.81;100105.75;5076523;28;20344;-59
2022/09/04 09:40:25;;;;;;;2.17;1.20;;;;;;;15.87;41.71;100131.81;5078984;28;20051;-60
2022/09/04 09:43:20;;;;;;;7.80;1.70;;;;;;;16.17;40.73;100121.97;5064303;28;20020;-59
2022/09/04 09:46:23;;;;;;;5.20;1.23;;;;;;;15.63;39.75;100121.28;5079406;28;20358;-59
2022/09/04 09:49:19;;;;;;;0.80;0.77;;;;;;;15.91;38.71;100122.13;5080001;28;20021;-62
2022/09/04 09:52:15;;;;;;;2.58;1.30;;;;;;;16.11;40.40;100118.75;5080721;28;20025;-59
2022/09/04 09:54:47;;;;;;;3.03;0.85;;;;;;;16.30;40.38;100121.53;5078965;28;20091;-58
2022/09/04 09:58:04;;;;;;;2.50;1.02;;;;;;;16.31;40.10;100112.78;5081054;28;20029;-60
2022/09/04 10:00:51;;;;;;;4.85;1.20;;;;;;;16.18;40.06;100112.41;5080132;28;20325;-59
2022/09/04 10:03:37;;;;;;;2.15;1.38;;;;;;;16.31;40.74;100113.63;5079921;28;20029;-59
2022/09/04 10:06:27;;;;;;;2.42;1.05;;;;;;;16.40;37.86;100104.56;5080996;28;20024;-60
2022/09/04 10:09:21;;;;;;;1.75;0.95;;;;;;;16.62;38.41;100112.44;5079651;28;20032;-59
2022/09/04 10:11:58;;;;;;;1.92;1.20;;;;;;;16.80;38.72;100095.16;5081659;28;20077;-60
2022/09/04 10:14:43;;;;;;;2.75;1.10;;;;;;;16.59;39.10;100109.06;5082595;28;20154;-59
2022/09/04 10:17:43;;;;;;;2.75;1.33;;;;;;;16.19;38.87;100106.28;5079983;28;20036;-60
2022/09/04 10:20:30;;;;;;;4.22;1.40;;;;;;;16.57;39.01;100117.00;5079848;28;20040;-58
2022/09/04 10:23:31;;;;;;;4.28;1.52;;;;;;;16.58;39.11;100105.63;5083043;28;20040;-59
2022/09/04 10:26:14;;;;;;;1.77;1.65;;;;;;;16.73;40.13;100097.16;5063305;28;20060;-62
2022/09/04 10:29:12;;;;;;;2.42;1.40;;;;;;;16.76;38.53;100097.94;5078651;28;20031;-61
2022/09/04 10:32:02;;;;;;;2.10;1.05;;;;;;;16.60;37.97;100072.41;5081604;28;20043;-59
2022/09/04 10:34:46;;;;;;;1.92;1.08;;;;;;;16.87;37.35;100093.13;5078526;28;20081;-60
2022/09/04 10:37:30;;;;;;;2.25;1.10;;;;;;;16.84;37.19;100101.94;5076030;28;20039;-60
2022/09/04 10:40:34;;;;;;;2.22;1.00;;;;;;;16.88;37.04;100105.34;5077930;28;20101;-61
2022/09/04 10:43:15;;;;;;;2.15;0.98;;;;;;;16.84;35.75;100069.72;5080874;28;20320;-59
2022/09/04 10:45:50;;;;;;;2.38;0.88;;;;;;;16.87;35.71;100091.38;5079770;28;20046;-61
2022/09/04 10:48:44;;;;;;;3.55;1.02;;;;;;;16.78;36.38;100098.75;5079362;28;20041;-61
2022/09/04 10:51:17;;;;;;;2.55;1.20;;;;;;;16.55;36.46;100093.50;5077350;28;20225;-61
2022/09/04 10:54:17;;;;;;;3.05;1.20;;;;;;;16.47;35.82;100090.34;5082340;28;20073;-61
2022/09/04 10:56:43;;;;;;;1.50;0.98;;;;;;;16.31;36.04;100095.31;5058858;28;20044;-62
2022/09/04 10:59:42;;;;;;;0.98;0.90;;;;;;;16.20;36.53;100093.16;5080972;28;20044;-61
2022/09/04 11:02:21;;;;;;;1.73;1.00;;;;;;;16.28;37.55;100089.38;5082995;28;20048;-60
2022/09/04 11:05:29;;;;;;;1.40;1.30;;;;;;;16.14;36.35;100082.06;5083661;28;20031;-61
2022/09/04 11:08:16;;;;;;;0.90;0.90;;;;;;;16.29;36.35;100091.94;5086959;28;20040;-62
2022/09/04 11:11:02;;;;;;;1.77;1.10;;;;;;;16.38;35.74;100086.34;5080030;28;20309;-61
2022/09/04 11:13:43;;;;;;;2.00;1.02;;;;;;;16.45;36.42;100083.50;5099489;28;20255;-61
2022/09/04 11:16:25;;;;;;;2.05;1.23;;;;;;;16.24;36.73;100079.94;5107160;28;20020;-61
2022/09/04 11:19:00;;;;;;;;;;;;;;;16.46;38.08;100091.28;5090662;28;20187;-62
2022/09/04 11:21:48;;;;;;;3.05;1.30;;;;;;;16.64;38.24;100075.75;5086075;28;19908;-61
2022/09/04 11:24:52;;;;;;;4.72;1.40;;;;;;;16.62;38.27;100082.84;5086786;28;20032;-62
2022/09/04 11:28:05;;;;;;;4.00;1.42;;;;;;;16.66;38.32;100066.06;5102495;28;20044;-62
2022/09/04 11:31:12;;;;;;;4.70;1.23;;;;;;;16.46;38.10;100080.81;5086491;28;20025;-63
2022/09/04 11:33:40;;;;;;;2.60;1.60;;;;;;;16.33;38.82;100083.06;5059547;28;20064;-63
2022/09/04 11:36:24;;;;;;;2.67;1.25;;;;;;;15.88;38.92;100081.28;5077993;28;20051;-62
2022/09/04 11:39:24;;;;;;;4.22;1.20;;;;;;;16.10;39.11;100085.69;5085981;28;20347;-62
2022/09/04 11:42:13;;;;;;;1.80;1.50;;;;;;;16.05;39.64;100089.34;5065801;28;20083;-62
2022/09/04 11:44:59;;;;;;;2.92;2.30;;;;;;;15.63;40.14;100083.91;5080189;28;20032;-62
2022/09/04 11:47:53;;;;;;;3.00;1.67;;;;;;;15.76;40.27;100085.19;5085920;28;20032;-61
2022/09/04 11:50:55;;;;;;;3.10;1.52;;;;;;;15.64;40.10;100083.84;5070603;28;20064;-63
2022/09/04 11:53:42;;;;;;;2.90;1.50;;;;;;;15.82;39.86;100082.34;5085617;28;20036;-62
2022/09/04 11:56:17;;;;;;;6.05;1.70;;;;;;;15.81;38.42;100079.81;5072733;28;20033;-62
2022/09/04 11:58:46;;;;;;;1.60;1.20;;;;;;;15.93;38.44;100079.34;5076025;28;20063;-63
2022/09/04 12:01:17;;;;;;;2.53;1.10;;;;;;;15.99;38.97;100073.91;5077580;28;20384;-61
2022/09/04 12:04:28;;;;;;;1.75;1.20;;;;;;;16.02;38.87;100075.56;5080963;28;20081;-62
2022/09/04 12:07:18;;;;;;;2.45;1.30;;;;;;;15.95;39.20;100069.69;5073628;28;20033;-61
2022/09/04 12:09:59;;;;;;;3.17;1.30;;;;;;;15.83;38.91;100077.97;5081826;28;20040;-61
2022/09/04 12:13:26;;;;;;;5.22;1.75;;;;;;;15.72;39.88;100067.91;5079286;28;20213;-62
2022/09/04 12:16:09;;;;;;;3.50;1.25;;;;;;;15.33;39.89;100035.34;5015943;28;20097;-62
2022/09/04 12:19:08;;;;;;;1.77;1.65;;;;;;;15.57;40.01;100076.28;5075469;28;20051;-61
2022/09/04 12:21:47;;;;;;;4.32;1.38;;;;;;;15.64;40.11;100073.41;5083025;28;20029;-61
2022/09/04 12:24:42;;;;;;;1.38;1.20;;;;;;;15.57;40.88;100068.47;5084351;28;20029;-61
2022/09/04 12:27:50;;;;;;;1.25;1.13;;;;;;;15.52;41.57;100068.63;5084232;28;20024;-60
2022/09/04 12:30:22;;;;;;;2.72;1.40;;;;;;;15.56;41.74;100070.19;5074521;28;20091;-61
2022/09/04 12:33:03;;;;;;;1.80;1.25;;;;;;;15.61;41.54;100068.28;5084404;28;20040;-61
2022/09/04 12:35:54;;;;;;;1.52;1.30;;;;;;;15.73;41.50;100072.19;5079653;28;20036;-62
2022/09/04 12:39:01;;;;;;;3.70;1.48;;;;;;;15.62;40.41;100066.50;5080114;28;20045;-62
2022/09/04 12:41:55;;;;;;;2.05;1.40;;;;;;;15.31;40.19;100065.84;5080687;28;20031;-63
2022/09/04 12:45:04;;;;;;;1.75;1.40;;;;;;;15.22;40.42;100016.63;5082337;28;20104;-62
2022/09/04 12:47:56;;;;;;;4.30;1.58;;;;;;;15.26;40.67;100014.72;5065471;28;20337;-62
2022/09/04 12:50:44;;;;;;;4.00;1.60;;;;;;;15.26;40.21;100014.72;5084171;28;20025;-62
2022/09/04 12:53:09;;;;;;;3.92;1.90;;;;;;;15.58;40.53;100063.19;5083994;28;20033;-61
2022/09/04 12:55:52;;;;;;;1.85;1.75;;;;;;;15.30;40.98;100009.34;5083851;28;20028;-61
2022/09/04 12:58:49;;;;;;;4.28;1.60;;;;;;;15.64;40.58;100062.09;5054011;28;1271427;-62